createdAt,value
2023-04-09T00:00:45.498Z,97626.47
2023-04-09T00:03:12.660Z,97622.84
2023-04-09T00:05:40.659Z,97613.50
2023-04-09T00:08:07.825Z,97614.38
2023-04-09T00:10:34.829Z,97623.50
2023-04-09T00:13:01.902Z,97622.53
2023-04-09T00:15:31.580Z,97619.16
2023-04-09T00:17:59.745Z,97620.44
2023-04-09T00:20:26.858Z,97617.78
2023-04-09T00:22:54.225Z,97610.34
2023-04-09T00:25:21.272Z,97605.28
2023-04-09T00:27:48.226Z,97618.34
2023-04-09T00:30:15.956Z,97612.22
2023-04-09T00:32:43.075Z,97605.91
2023-04-09T00:35:12.633Z,97606.88
2023-04-09T00:37:39.648Z,97603.41
2023-04-09T00:40:07.170Z,97612.94
2023-04-09T00:42:34.863Z,97608.34
2023-04-09T00:45:02.126Z,97609.25
2023-04-09T00:47:29.826Z,97605.84
2023-04-09T00:49:57.004Z,97604.47
2023-04-09T00:52:24.717Z,97607.72
2023-04-09T00:54:51.846Z,97603.34
2023-04-09T00:57:19.359Z,97607.38
2023-04-09T00:59:46.418Z,97608.75
2023-04-09T01:02:13.529Z,97606.59
2023-04-09T01:04:41.247Z,97606.00
2023-04-09T01:07:20.948Z,97605.44
2023-04-09T01:09:54.835Z,97604.31
2023-04-09T01:12:34.222Z,97597.88
2023-04-09T01:15:30.154Z,97603.19
2023-04-09T01:18:12.476Z,97602.38
2023-04-09T01:20:41.557Z,97602.72
2023-04-09T01:23:19.249Z,97602.06
2023-04-09T01:26:04.818Z,97594.31
2023-04-09T01:28:45.721Z,97591.97
2023-04-09T01:31:15.393Z,97590.38
2023-04-09T01:33:42.637Z,97595.69
2023-04-09T01:36:09.773Z,97587.50
2023-04-09T01:38:37.700Z,97588.50
2023-04-09T01:41:05.395Z,97594.31
2023-04-09T01:43:32.386Z,97587.84
2023-04-09T01:45:59.812Z,97586.06
2023-04-09T01:48:27.173Z,97591.47
2023-04-09T01:50:54.151Z,97588.56
2023-04-09T01:53:21.928Z,97591.53
2023-04-09T01:55:48.873Z,97587.50
2023-04-09T01:58:16.019Z,97592.56
2023-04-09T02:00:46.973Z,97590.97
2023-04-09T02:03:21.752Z,97584.00
2023-04-09T02:06:06.864Z,97599.06
2023-04-09T02:08:33.837Z,97599.28
2023-04-09T02:11:00.924Z,97596.00
2023-04-09T02:13:27.904Z,97594.28
2023-04-09T02:15:56.163Z,97590.78
2023-04-09T02:18:30.241Z,97587.84
2023-04-09T02:20:57.572Z,97582.75
2023-04-09T02:23:24.778Z,97580.06
2023-04-09T02:25:52.265Z,97569.97
2023-04-09T02:28:19.315Z,97570.22
2023-04-09T02:30:46.331Z,97578.88
2023-04-09T02:33:13.435Z,97582.47
2023-04-09T02:35:40.774Z,97588.22
2023-04-09T02:38:13.920Z,97608.50
2023-04-09T02:40:41.447Z,97619.06
2023-04-09T02:43:09.230Z,97611.47
2023-04-09T02:45:36.350Z,97614.75
2023-04-09T02:48:03.858Z,97614.66
2023-04-09T02:50:34.645Z,97617.88
2023-04-09T02:53:01.929Z,97616.72
2023-04-09T02:55:28.979Z,97614.19
2023-04-09T02:57:56.068Z,97613.72
2023-04-09T03:00:23.130Z,97623.78
2023-04-09T03:02:50.403Z,97614.06
2023-04-09T03:05:17.650Z,97618.81
2023-04-09T03:07:44.996Z,97618.91
2023-04-09T03:10:12.125Z,97612.13
2023-04-09T03:12:39.214Z,97615.47
2023-04-09T03:15:07.036Z,97611.97
2023-04-09T03:17:34.118Z,97614.41
2023-04-09T03:20:01.164Z,97617.06
2023-04-09T03:22:38.947Z,97616.72
2023-04-09T03:25:19.521Z,97620.53
2023-04-09T03:27:47.384Z,97611.75
2023-04-09T03:30:22.036Z,97609.78
2023-04-09T03:32:49.089Z,97613.03
2023-04-09T03:35:16.370Z,97615.56
2023-04-09T03:37:44.886Z,97619.81
2023-04-09T03:40:17.178Z,97615.78
2023-04-09T03:42:44.409Z,97614.53
2023-04-09T03:45:14.238Z,97618.22
2023-04-09T03:47:44.552Z,97624.31
2023-04-09T03:50:12.435Z,97621.78
2023-04-09T03:52:55.074Z,97625.59
2023-04-09T03:55:22.491Z,97618.91
2023-04-09T03:57:50.765Z,97620.88
2023-04-09T04:00:20.820Z,97623.53
2023-04-09T04:02:51.561Z,97619.84
2023-04-09T04:05:29.186Z,97620.41
2023-04-09T04:07:59.131Z,97617.53
2023-04-09T04:10:29.276Z,97614.41
2023-04-09T04:12:56.305Z,97606.47
2023-04-09T04:15:33.887Z,97609.84
2023-04-09T04:18:01.030Z,97607.84
2023-04-09T04:20:42.171Z,97611.44
2023-04-09T04:23:12.990Z,97617.47
2023-04-09T04:25:58.537Z,97614.88
2023-04-09T04:28:30.834Z,97620.66
2023-04-09T04:30:59.275Z,97612.53
2023-04-09T04:33:27.847Z,97614.81
2023-04-09T04:36:13.620Z,97615.16
2023-04-09T04:38:45.010Z,97633.59
2023-04-09T04:41:20.915Z,97636.97
2023-04-09T04:43:54.542Z,97638.00
2023-04-09T04:46:24.714Z,97632.41
2023-04-09T04:48:51.954Z,97630.16
2023-04-09T04:51:19.528Z,97640.16
2023-04-09T04:53:58.669Z,97639.78
2023-04-09T04:56:25.808Z,97644.25
2023-04-09T04:59:02.471Z,97644.50
2023-04-09T05:01:36.266Z,97647.53
2023-04-09T05:04:07.720Z,97642.06
2023-04-09T05:06:36.972Z,97650.13
2023-04-09T05:09:08.421Z,97642.03
2023-04-09T05:11:42.137Z,97643.03
2023-04-09T05:14:14.734Z,97643.94
2023-04-09T05:16:42.245Z,97641.50
2023-04-09T05:19:09.258Z,97651.31
2023-04-09T05:21:37.712Z,97640.59
2023-04-09T05:24:06.372Z,97643.38
2023-04-09T05:26:34.348Z,97646.38
2023-04-09T05:29:02.687Z,97644.97
2023-04-09T05:31:29.786Z,97651.88
2023-04-09T05:34:06.818Z,97650.63
2023-04-09T05:36:47.602Z,97641.41
2023-04-09T05:39:15.521Z,97645.63
2023-04-09T05:41:44.636Z,97647.31
2023-04-09T05:44:26.713Z,97651.28
2023-04-09T05:47:00.888Z,97652.44
2023-04-09T05:49:33.925Z,97652.25
2023-04-09T05:52:03.521Z,97649.75
2023-04-09T05:54:32.682Z,97647.41
2023-04-09T05:56:59.652Z,97645.81
2023-04-09T05:59:27.136Z,97654.44
2023-04-09T06:01:54.264Z,97653.81
2023-04-09T06:04:22.182Z,97655.09
2023-04-09T06:06:49.596Z,97649.44
2023-04-09T06:09:16.540Z,97656.28
2023-04-09T06:11:43.524Z,97657.31
2023-04-09T06:14:16.386Z,97663.88
2023-04-09T06:16:43.536Z,97668.53
2023-04-09T06:19:12.536Z,97667.72
2023-04-09T06:21:40.828Z,97674.53
2023-04-09T06:24:07.869Z,97669.94
2023-04-09T06:26:34.833Z,97671.44
2023-04-09T06:29:02.203Z,97672.53
2023-04-09T06:31:29.727Z,97687.00
2023-04-09T06:33:56.918Z,97680.84
2023-04-09T06:36:23.948Z,97681.81
2023-04-09T06:38:51.059Z,97680.19
2023-04-09T06:41:21.301Z,97677.63
2023-04-09T06:43:48.390Z,97683.78
2023-04-09T06:46:17.942Z,97685.06
2023-04-09T06:48:44.922Z,97684.50
2023-04-09T06:51:12.337Z,97688.78
2023-04-09T06:53:39.490Z,97686.88
2023-04-09T06:56:06.900Z,97676.66
2023-04-09T06:58:34.077Z,97675.00
2023-04-09T07:01:01.186Z,97667.47
2023-04-09T07:03:28.950Z,97676.03
2023-04-09T07:05:56.609Z,97678.44
2023-04-09T07:08:23.983Z,97687.69
2023-04-09T07:10:51.210Z,97692.50
2023-04-09T07:13:18.743Z,97686.72
2023-04-09T07:15:45.792Z,97688.09
2023-04-09T07:18:12.880Z,97673.34
2023-04-09T07:20:39.821Z,97672.88
2023-04-09T07:23:06.933Z,97677.19
2023-04-09T07:25:34.094Z,97671.16
2023-04-09T07:28:01.157Z,97665.25
2023-04-09T07:30:28.165Z,97659.38
2023-04-09T07:32:55.337Z,97666.66
2023-04-09T07:35:22.448Z,97671.84
2023-04-09T07:37:49.452Z,97680.28
2023-04-09T07:40:16.638Z,97676.81
2023-04-09T07:42:43.783Z,97692.47
2023-04-09T07:45:11.160Z,97687.94
2023-04-09T07:47:42.110Z,97694.88
2023-04-09T07:50:09.661Z,97691.50
2023-04-09T07:52:36.614Z,97706.81
2023-04-09T07:55:03.727Z,97700.72
2023-04-09T07:57:33.760Z,97697.94
2023-04-09T08:00:01.846Z,97692.78
2023-04-09T08:02:40.219Z,97702.84
2023-04-09T08:05:08.037Z,97698.16
2023-04-09T08:07:35.205Z,97698.97
2023-04-09T08:10:02.175Z,97707.63
2023-04-09T08:12:29.248Z,97710.66
2023-04-09T08:14:56.437Z,97711.75
2023-04-09T08:17:23.422Z,97706.38
2023-04-09T08:19:50.801Z,97703.38
2023-04-09T08:22:17.785Z,97708.53
2023-04-09T08:24:44.777Z,97709.84
2023-04-09T08:27:12.193Z,97712.28
2023-04-09T08:29:40.632Z,97706.06
2023-04-09T08:32:08.191Z,97704.91
2023-04-09T08:34:35.279Z,97708.03
2023-04-09T08:37:02.788Z,97701.44
2023-04-09T08:39:29.804Z,97709.63
2023-04-09T08:42:00.045Z,97709.03
2023-04-09T08:44:27.349Z,97705.25
2023-04-09T08:46:54.557Z,97701.41
2023-04-09T08:49:21.761Z,97708.81
2023-04-09T08:51:49.201Z,97711.75
2023-04-09T08:54:17.291Z,97706.69
2023-04-09T08:56:44.350Z,97717.25
2023-04-09T08:59:11.441Z,97715.31
2023-04-09T09:01:38.542Z,97713.38
2023-04-09T09:04:07.012Z,97706.72
2023-04-09T09:06:38.371Z,97706.06
2023-04-09T09:09:12.710Z,97711.25
2023-04-09T09:11:41.354Z,97711.06
2023-04-09T09:14:09.801Z,97711.56
2023-04-09T09:16:42.737Z,97713.34
2023-04-09T09:19:24.850Z,97722.44
2023-04-09T09:21:59.699Z,97724.84
2023-04-09T09:24:26.749Z,97724.47
2023-04-09T09:26:59.984Z,97724.34
2023-04-09T09:29:28.206Z,97724.72
2023-04-09T09:31:55.926Z,97721.28
2023-04-09T09:34:23.840Z,97727.59
2023-04-09T09:36:50.974Z,97718.06
2023-04-09T09:39:18.222Z,97722.88
2023-04-09T09:41:45.976Z,97713.16
2023-04-09T09:44:13.853Z,97710.28
2023-04-09T09:46:42.447Z,97712.38
2023-04-09T09:49:09.649Z,97712.91
2023-04-09T09:51:37.564Z,97709.47
2023-04-09T09:54:04.539Z,97717.56
2023-04-09T09:56:37.147Z,97715.63
2023-04-09T09:59:07.631Z,97699.78
2023-04-09T10:01:36.198Z,97706.72
2023-04-09T10:04:04.643Z,97712.56
2023-04-09T10:06:34.241Z,97710.38
2023-04-09T10:09:04.594Z,97708.44
2023-04-09T10:11:33.713Z,97712.53
2023-04-09T10:14:00.822Z,97716.44
2023-04-09T10:16:28.428Z,97710.53
2023-04-09T10:18:56.413Z,97714.00
2023-04-09T10:21:47.761Z,97712.69
2023-04-09T10:24:16.065Z,97706.59
2023-04-09T10:26:44.773Z,97701.72
2023-04-09T10:29:16.630Z,97709.00
2023-04-09T10:31:47.582Z,97709.97
2023-04-09T10:34:21.865Z,97712.81
2023-04-09T10:36:55.448Z,97715.06
2023-04-09T10:39:27.056Z,97708.31
2023-04-09T10:41:54.471Z,97715.28
2023-04-09T10:44:27.120Z,97716.69
2023-04-09T10:46:57.156Z,97709.16
2023-04-09T10:49:25.592Z,97707.59
2023-04-09T10:51:53.488Z,97707.84
2023-04-09T10:54:35.838Z,97711.41
2023-04-09T10:57:11.552Z,97710.94
2023-04-09T10:59:45.503Z,97707.34
2023-04-09T11:02:41.123Z,97703.38
2023-04-09T11:05:22.301Z,97702.72
2023-04-09T11:08:03.391Z,97703.69
2023-04-09T11:10:31.044Z,97697.41
2023-04-09T11:12:58.076Z,97693.22
2023-04-09T11:15:25.120Z,97695.50
2023-04-09T11:17:52.191Z,97690.97
2023-04-09T11:20:23.355Z,97691.50
2023-04-09T11:22:51.517Z,97684.09
2023-04-09T11:25:22.726Z,97692.97
2023-04-09T11:27:50.164Z,97685.34
2023-04-09T11:30:17.206Z,97682.38
2023-04-09T11:32:44.269Z,97675.75
2023-04-09T11:35:18.315Z,97688.47
2023-04-09T11:37:45.805Z,97684.41
2023-04-09T11:40:16.965Z,97672.00
2023-04-09T11:42:44.986Z,97678.28
2023-04-09T11:45:12.328Z,97682.38
2023-04-09T11:47:40.578Z,97682.50
2023-04-09T11:50:08.411Z,97679.38
2023-04-09T11:52:36.063Z,97685.53
2023-04-09T11:55:04.610Z,97679.13
2023-04-09T11:57:41.381Z,97674.88
2023-04-09T12:00:09.505Z,97679.34
2023-04-09T12:02:44.475Z,97692.13
2023-04-09T12:05:13.521Z,97684.47
2023-04-09T12:07:42.325Z,97679.50
2023-04-09T12:10:14.013Z,97681.88
2023-04-09T12:12:47.728Z,97685.94
2023-04-09T12:15:21.673Z,97677.69
2023-04-09T12:17:52.191Z,97679.38
2023-04-09T12:20:42.524Z,97686.03
2023-04-09T12:23:09.993Z,97682.66
2023-04-09T12:25:43.986Z,97679.59
2023-04-09T12:28:13.691Z,97671.91
2023-04-09T12:30:40.811Z,97675.81
2023-04-09T12:33:10.301Z,97681.50
2023-04-09T12:35:38.515Z,97674.00
2023-04-09T12:38:05.779Z,97675.16
2023-04-09T12:40:32.773Z,97686.53
2023-04-09T12:42:59.762Z,97676.16
2023-04-09T12:45:28.068Z,97670.41
2023-04-09T12:47:55.176Z,97680.97
2023-04-09T12:50:22.245Z,97672.81
2023-04-09T12:52:49.288Z,97667.53
2023-04-09T12:55:16.435Z,97675.78
2023-04-09T12:57:45.052Z,97675.13
2023-04-09T13:00:12.665Z,97672.50
2023-04-09T13:02:39.882Z,97653.09
2023-04-09T13:05:07.566Z,97655.13
2023-04-09T13:07:34.667Z,97660.09
2023-04-09T13:10:01.703Z,97657.25
2023-04-09T13:12:28.816Z,97650.75
2023-04-09T13:14:56.702Z,97661.25
2023-04-09T13:17:23.892Z,97657.41
2023-04-09T13:19:51.830Z,97654.00
2023-04-09T13:22:19.094Z,97652.97
2023-04-09T13:24:46.131Z,97659.25
2023-04-09T13:27:13.095Z,97652.84
2023-04-09T13:29:40.192Z,97657.03
2023-04-09T13:32:07.633Z,97656.06
2023-04-09T13:34:35.200Z,97650.84
2023-04-09T13:37:03.073Z,97654.78
2023-04-09T13:39:30.017Z,97647.38
2023-04-09T13:41:57.037Z,97642.44
2023-04-09T13:44:25.070Z,97636.09
2023-04-09T13:46:52.458Z,97637.38
2023-04-09T13:49:19.404Z,97647.72
2023-04-09T13:51:46.501Z,97635.34
2023-04-09T13:54:13.593Z,97633.53
2023-04-09T13:56:40.616Z,97634.84
2023-04-09T13:59:07.621Z,97637.50
2023-04-09T14:01:34.773Z,97631.41
2023-04-09T14:04:02.254Z,97635.31
2023-04-09T14:06:29.378Z,97642.59
2023-04-09T14:08:57.145Z,97625.53
2023-04-09T14:11:24.388Z,97618.72
2023-04-09T14:13:51.744Z,97628.53
2023-04-09T14:16:19.448Z,97624.72
2023-04-09T14:18:46.537Z,97624.19
2023-04-09T14:21:13.533Z,97627.38
2023-04-09T14:23:40.779Z,97620.59
2023-04-09T14:26:07.783Z,97618.28
2023-04-09T14:28:34.767Z,97628.22
2023-04-09T14:31:01.896Z,97622.31
2023-04-09T14:33:28.897Z,97621.19
2023-04-09T14:35:56.348Z,97622.75
2023-04-09T14:38:26.538Z,97613.38
2023-04-09T14:40:53.574Z,97616.28
2023-04-09T14:43:20.523Z,97618.53
2023-04-09T14:45:47.787Z,97621.41
2023-04-09T14:48:15.075Z,97615.09
2023-04-09T14:50:43.194Z,97621.84
2023-04-09T14:53:10.297Z,97618.16
2023-04-09T14:55:37.333Z,97612.94
2023-04-09T14:58:07.140Z,97612.63
2023-04-09T15:00:34.261Z,97603.88
2023-04-09T15:03:01.427Z,97613.38
2023-04-09T15:05:28.709Z,97607.84
2023-04-09T15:07:56.117Z,97612.81
2023-04-09T15:10:23.180Z,97604.19
2023-04-09T15:12:50.269Z,97606.16
2023-04-09T15:15:17.472Z,97605.28
2023-04-09T15:17:44.557Z,97610.66
2023-04-09T15:20:11.865Z,97608.94
2023-04-09T15:22:38.808Z,97598.22
2023-04-09T15:25:06.259Z,97603.75
2023-04-09T15:27:33.269Z,97603.00
2023-04-09T15:30:00.457Z,97607.41
2023-04-09T15:32:29.073Z,97609.78
2023-04-09T15:34:56.290Z,97611.69
2023-04-09T15:37:23.320Z,97615.97
2023-04-09T15:39:50.658Z,97608.41
2023-04-09T15:42:22.519Z,97610.63
2023-04-09T15:44:50.535Z,97599.38
2023-04-09T15:47:17.819Z,97608.50
2023-04-09T15:49:45.018Z,97595.63
2023-04-09T15:52:12.020Z,97597.69
2023-04-09T15:54:38.976Z,97599.88
2023-04-09T15:57:05.996Z,97599.38
2023-04-09T15:59:32.965Z,97603.63
2023-04-09T16:02:00.009Z,97603.13
2023-04-09T16:04:27.745Z,97603.03
2023-04-09T16:06:56.414Z,97603.75
2023-04-09T16:09:23.879Z,97594.44
2023-04-09T16:11:51.214Z,97594.97
2023-04-09T16:14:18.245Z,97601.25
2023-04-09T16:16:50.070Z,97595.63
2023-04-09T16:19:17.783Z,97599.78
2023-04-09T16:21:45.609Z,97598.47
2023-04-09T16:24:12.863Z,97599.78
2023-04-09T16:26:41.108Z,97596.09
2023-04-09T16:29:08.233Z,97601.72
2023-04-09T16:31:36.040Z,97599.19
2023-04-09T16:34:03.173Z,97601.03
2023-04-09T16:36:37.233Z,97601.78
2023-04-09T16:39:04.790Z,97603.59
2023-04-09T16:41:31.981Z,97604.47
2023-04-09T16:43:58.979Z,97607.41
2023-04-09T16:46:26.083Z,97607.28
2023-04-09T16:48:53.523Z,97604.53
2023-04-09T16:51:21.137Z,97606.34
2023-04-09T16:53:48.152Z,97602.56
2023-04-09T16:56:16.105Z,97596.16
2023-04-09T16:58:43.107Z,97602.50
2023-04-09T17:01:10.138Z,97591.66
2023-04-09T17:03:37.504Z,97601.81
2023-04-09T17:06:05.016Z,97602.31
2023-04-09T17:08:32.224Z,97603.06
2023-04-09T17:11:02.567Z,97604.22
2023-04-09T17:13:31.625Z,97605.81
2023-04-09T17:15:58.767Z,97609.56
2023-04-09T17:18:25.821Z,97604.16
2023-04-09T17:20:53.473Z,97602.03
2023-04-09T17:23:21.736Z,97611.38
2023-04-09T17:25:49.303Z,97622.34
2023-04-09T17:28:18.683Z,97618.56
2023-04-09T17:30:46.013Z,97617.00
2023-04-09T17:33:13.430Z,97627.75
2023-04-09T17:35:42.195Z,97631.00
2023-04-09T17:38:09.233Z,97626.69
2023-04-09T17:40:36.481Z,97621.31
2023-04-09T17:43:03.530Z,97618.09
2023-04-09T17:45:30.529Z,97627.72
2023-04-09T17:47:57.628Z,97627.72
2023-04-09T17:50:24.969Z,97627.50
2023-04-09T17:52:52.453Z,97631.41
2023-04-09T17:55:19.501Z,97631.72
2023-04-09T17:57:46.500Z,97630.94
2023-04-09T18:00:14.046Z,97635.13
2023-04-09T18:02:47.089Z,97634.56
2023-04-09T18:05:14.434Z,97634.50
2023-04-09T18:07:41.684Z,97641.94
2023-04-09T18:10:08.873Z,97637.59
2023-04-09T18:12:35.976Z,97639.78
2023-04-09T18:15:04.363Z,97644.34
2023-04-09T18:17:32.470Z,97641.88
2023-04-09T18:19:59.547Z,97645.03
2023-04-09T18:22:27.630Z,97651.75
2023-04-09T18:24:54.972Z,97647.97
2023-04-09T18:27:21.886Z,97659.06
2023-04-09T18:29:49.465Z,97653.03
2023-04-09T18:32:17.104Z,97650.16
2023-04-09T18:34:45.808Z,97651.75
2023-04-09T18:37:12.884Z,97644.09
2023-04-09T18:39:39.963Z,97647.91
2023-04-09T18:42:07.076Z,97662.91
2023-04-09T18:44:36.350Z,97660.78
2023-04-09T18:47:05.832Z,97664.91
2023-04-09T18:49:33.336Z,97667.97
2023-04-09T18:52:00.532Z,97661.34
2023-04-09T18:54:27.827Z,97658.34
2023-04-09T18:56:54.855Z,97678.47
2023-04-09T18:59:21.986Z,97677.59
2023-04-09T19:01:49.097Z,97675.66
2023-04-09T19:04:16.467Z,97679.28
2023-04-09T19:06:46.552Z,97683.88
2023-04-09T19:09:13.711Z,97687.16
2023-04-09T19:11:41.221Z,97691.81
2023-04-09T19:14:08.437Z,97692.47
2023-04-09T19:16:36.124Z,97694.13
2023-04-09T19:19:03.531Z,97697.38
2023-04-09T19:21:30.712Z,97696.31
2023-04-09T19:24:00.036Z,97693.28
2023-04-09T19:26:27.145Z,97688.81
2023-04-09T19:28:54.885Z,97691.13
2023-04-09T19:31:22.761Z,97685.56
2023-04-09T19:33:49.801Z,97697.06
2023-04-09T19:36:16.848Z,97685.44
2023-04-09T19:38:43.842Z,97693.75
2023-04-09T19:41:11.055Z,97696.53
2023-04-09T19:43:39.337Z,97699.41
2023-04-09T19:46:08.557Z,97699.94
2023-04-09T19:48:37.834Z,97708.06
2023-04-09T19:51:05.070Z,97708.75
2023-04-09T19:53:33.061Z,97707.03
2023-04-09T19:56:00.105Z,97699.06
2023-04-09T19:58:27.393Z,97705.88
2023-04-09T20:00:55.022Z,97703.00
2023-04-09T20:03:22.475Z,97699.81
2023-04-09T20:05:49.731Z,97691.31
2023-04-09T20:08:16.742Z,97700.53
2023-04-09T20:10:46.525Z,97704.03
2023-04-09T20:13:13.885Z,97702.78
2023-04-09T20:15:41.682Z,97709.47
2023-04-09T20:18:08.811Z,97706.50
2023-04-09T20:20:36.198Z,97705.81
2023-04-09T20:23:03.424Z,97694.28
2023-04-09T20:25:34.769Z,97704.56
2023-04-09T20:28:04.878Z,97699.63
2023-04-09T20:30:32.368Z,97699.13
2023-04-09T20:32:59.369Z,97693.09
2023-04-09T20:35:26.353Z,97695.59
2023-04-09T20:37:54.806Z,97694.16
2023-04-09T20:40:22.339Z,97699.31
2023-04-09T20:42:49.396Z,97698.81
2023-04-09T20:45:16.434Z,97698.41
2023-04-09T20:47:43.448Z,97699.13
2023-04-09T20:50:10.890Z,97697.47
2023-04-09T20:52:38.425Z,97698.34
2023-04-09T20:55:06.419Z,97703.19
2023-04-09T20:57:33.809Z,97700.94
2023-04-09T21:00:01.073Z,97703.19
2023-04-09T21:02:28.206Z,97706.59
2023-04-09T21:04:56.414Z,97701.28
2023-04-09T21:07:23.443Z,97710.88
2023-04-09T21:09:50.424Z,97709.41
2023-04-09T21:12:17.439Z,97712.06
2023-04-09T21:14:44.483Z,97710.50
2023-04-09T21:17:11.569Z,97705.56
2023-04-09T21:19:38.664Z,97703.00
2023-04-09T21:22:05.617Z,97711.88
2023-04-09T21:24:34.069Z,97711.66
2023-04-09T21:27:01.738Z,97710.03
2023-04-09T21:29:28.710Z,97714.53
2023-04-09T21:31:55.911Z,97716.25
2023-04-09T21:34:22.930Z,97716.78
2023-04-09T21:36:50.018Z,97715.34
2023-04-09T21:39:17.248Z,97715.59
2023-04-09T21:41:44.226Z,97718.84
2023-04-09T21:44:11.296Z,97710.19
2023-04-09T21:46:40.690Z,97708.00
2023-04-09T21:49:08.192Z,97713.94
2023-04-09T21:51:35.481Z,97713.66
2023-04-09T21:54:06.839Z,97715.81
2023-04-09T21:56:34.372Z,97716.25
2023-04-09T21:59:01.495Z,97717.88
2023-04-09T22:01:30.540Z,97710.59
2023-04-09T22:04:01.889Z,97714.22
2023-04-09T22:06:29.293Z,97721.78
2023-04-09T22:08:57.357Z,97719.53
2023-04-09T22:11:28.504Z,97726.03
2023-04-09T22:13:56.811Z,97723.91
2023-04-09T22:16:24.226Z,97729.31
2023-04-09T22:18:51.789Z,97733.72
2023-04-09T22:21:18.986Z,97727.63
2023-04-09T22:23:45.929Z,97732.88
2023-04-09T22:26:13.161Z,97737.56
2023-04-09T22:28:40.176Z,97729.84
2023-04-09T22:31:07.409Z,97719.56
2023-04-09T22:33:34.545Z,97722.59
2023-04-09T22:36:01.863Z,97714.63
2023-04-09T22:38:28.973Z,97713.09
2023-04-09T22:40:56.133Z,97715.72
2023-04-09T22:43:23.306Z,97717.53
2023-04-09T22:45:54.509Z,97719.09
2023-04-09T22:48:22.090Z,97724.41
2023-04-09T22:50:49.642Z,97729.72
2023-04-09T22:53:19.313Z,97716.56
2023-04-09T22:55:47.650Z,97721.06
2023-04-09T22:58:14.931Z,97722.56
2023-04-09T23:00:42.340Z,97725.13
2023-04-09T23:03:09.685Z,97718.75
2023-04-09T23:05:36.829Z,97727.53
2023-04-09T23:08:04.002Z,97724.88
2023-04-09T23:10:31.443Z,97722.97
2023-04-09T23:12:58.392Z,97723.38
2023-04-09T23:15:25.570Z,97718.50
2023-04-09T23:17:52.621Z,97720.75
2023-04-09T23:20:19.878Z,97722.31
2023-04-09T23:22:47.541Z,97717.06
2023-04-09T23:25:17.362Z,97715.44
2023-04-09T23:27:44.368Z,97712.16
2023-04-09T23:30:16.717Z,97704.56
2023-04-09T23:32:46.991Z,97713.91
2023-04-09T23:35:14.262Z,97725.59
2023-04-09T23:37:41.551Z,97711.25
2023-04-09T23:40:08.942Z,97713.81
2023-04-09T23:42:35.967Z,97714.09
2023-04-09T23:45:04.433Z,97713.38
2023-04-09T23:47:33.466Z,97719.69
2023-04-09T23:50:05.014Z,97717.53
2023-04-09T23:52:33.178Z,97725.41
2023-04-09T23:55:00.198Z,97715.91
2023-04-09T23:57:27.544Z,97713.19
2023-04-09T23:59:54.688Z,97712.78
